sensor_id;sensor_type;location;lat;lon;timestamp;pressure;altitude;pressure_sealevel;temperature;humidity
43281;BME280;62175;49.416;8.690;2023-06-04T00:01:08;100512.53;;;22.08;34.35
43281;BME280;62175;49.416;8.690;2023-06-04T00:03:35;100509.50;;;22.09;32.55
43281;BME280;62175;49.416;8.690;2023-06-04T00:06:02;100508.52;;;22.15;34.88
43281;BME280;62175;49.416;8.690;2023-06-04T00:08:29;100505.88;;;22.11;32.32
43281;BME280;62175;49.416;8.690;2023-06-04T00:10:56;100498.06;;;22.09;33.38
43281;BME280;62175;49.416;8.690;2023-06-04T00:13:23;100503.03;;;21.98;30.76
43281;BME280;62175;49.416;8.690;2023-06-04T00:15:51;100512.01;;;22.01;34.78
43281;BME280;62175;49.416;8.690;2023-06-04T00:18:19;100507.34;;;21.84;34.76
43281;BME280;62175;49.416;8.690;2023-06-04T00:20:46;100512.28;;;22.01;32.68
43281;BME280;62175;49.416;8.690;2023-06-04T00:23:13;100507.34;;;21.95;31.07
43281;BME280;62175;49.416;8.690;2023-06-04T00:25:40;100504.53;;;21.97;33.73
43281;BME280;62175;49.416;8.690;2023-06-04T00:28:07;100505.68;;;22.01;36.51
43281;BME280;62175;49.416;8.690;2023-06-04T00:30:35;100511.65;;;21.98;34.28
43281;BME280;62175;49.416;8.690;2023-06-04T00:33:03;100507.87;;;21.70;32.52
43281;BME280;62175;49.416;8.690;2023-06-04T00:35:32;100515.09;;;21.86;33.65
43281;BME280;62175;49.416;8.690;2023-06-04T00:37:59;100506.64;;;21.98;32.99
43281;BME280;62175;49.416;8.690;2023-06-04T00:40:27;100509.29;;;22.01;37.42
43281;BME280;62175;49.416;8.690;2023-06-04T00:42:54;100515.24;;;21.88;34.53
43281;BME280;62175;49.416;8.690;2023-06-04T00:45:22;100512.43;;;22.04;32.97
43281;BME280;62175;49.416;8.690;2023-06-04T00:47:49;100518.46;;;22.12;31.26
43281;BME280;62175;49.416;8.690;2023-06-04T00:50:16;100519.52;;;21.64;31.58
43281;BME280;62175;49.416;8.690;2023-06-04T00:52:43;100520.01;;;21.77;31.18
43281;BME280;62175;49.416;8.690;2023-06-04T00:55:11;100521.64;;;21.87;32.38
43281;BME280;62175;49.416;8.690;2023-06-04T00:57:39;100525.44;;;21.59;32.10
43281;BME280;62175;49.416;8.690;2023-06-04T01:00:07;100524.34;;;21.68;31.45
43281;BME280;62175;49.416;8.690;2023-06-04T01:02:38;100522.89;;;21.86;34.80
43281;BME280;62175;49.416;8.690;2023-06-04T01:05:11;100524.81;;;21.81;31.47
43281;BME280;62175;49.416;8.690;2023-06-04T01:07:41;100526.52;;;21.55;34.06
43281;BME280;62175;49.416;8.690;2023-06-04T01:10:10;100526.09;;;21.62;35.13
43281;BME280;62175;49.416;8.690;2023-06-04T01:12:39;100524.23;;;21.95;31.09
43281;BME280;62175;49.416;8.690;2023-06-04T01:15:08;100531.18;;;21.60;36.02
43281;BME280;62175;49.416;8.690;2023-06-04T01:17:39;100522.76;;;21.74;32.99
43281;BME280;62175;49.416;8.690;2023-06-04T01:20:20;100532.40;;;21.67;32.57
43281;BME280;62175;49.416;8.690;2023-06-04T01:23:02;100533.23;;;21.83;32.89
43281;BME280;62175;49.416;8.690;2023-06-04T01:25:36;100534.77;;;21.55;30.46
43281;BME280;62175;49.416;8.690;2023-06-04T01:28:05;100531.81;;;21.78;34.32
43281;BME280;62175;49.416;8.690;2023-06-04T01:30:34;100529.71;;;21.83;32.24
43281;BME280;62175;49.416;8.690;2023-06-04T01:33:03;100530.25;;;21.56;31.67
43281;BME280;62175;49.416;8.690;2023-06-04T01:35:30;100528.03;;;21.54;33.64
43281;BME280;62175;49.416;8.690;2023-06-04T01:37:58;100530.07;;;21.55;33.11
43281;BME280;62175;49.416;8.690;2023-06-04T01:40:25;100530.11;;;21.73;34.08
43281;BME280;62175;49.416;8.690;2023-06-04T01:42:52;100529.67;;;21.67;33.20
43281;BME280;62175;49.416;8.690;2023-06-04T01:45:20;100524.91;;;21.49;31.92
43281;BME280;62175;49.416;8.690;2023-06-04T01:47:47;100522.31;;;22.09;34.79
43281;BME280;62175;49.416;8.690;2023-06-04T01:50:14;100526.35;;;22.03;35.80
43281;BME280;62175;49.416;8.690;2023-06-04T01:52:41;100526.35;;;21.58;31.20
43281;BME280;62175;49.416;8.690;2023-06-04T01:55:11;100527.52;;;21.46;32.25
43281;BME280;62175;49.416;8.690;2023-06-04T01:57:39;100525.56;;;21.75;31.94
43281;BME280;62175;49.416;8.690;2023-06-04T02:00:09;100525.69;;;21.50;32.06
43281;BME280;62175;49.416;8.690;2023-06-04T02:02:38;100528.32;;;21.94;32.99
43281;BME280;62175;49.416;8.690;2023-06-04T02:05:05;100524.16;;;21.73;30.28
43281;BME280;62175;49.416;8.690;2023-06-04T02:07:33;100525.93;;;21.50;34.10
43281;BME280;62175;49.416;8.690;2023-06-04T02:10:00;100526.06;;;21.80;32.88
43281;BME280;62175;49.416;8.690;2023-06-04T02:12:27;100531.47;;;21.39;31.98
43281;BME280;62175;49.416;8.690;2023-06-04T02:14:54;100528.33;;;21.82;31.05
43281;BME280;62175;49.416;8.690;2023-06-04T02:17:21;100532.22;;;21.73;37.28
43281;BME280;62175;49.416;8.690;2023-06-04T02:19:48;100530.02;;;21.57;33.11
43281;BME280;62175;49.416;8.690;2023-06-04T02:22:15;100527.76;;;21.71;31.16
43281;BME280;62175;49.416;8.690;2023-06-04T02:24:44;100534.01;;;21.48;31.04
43281;BME280;62175;49.416;8.690;2023-06-04T02:27:12;100535.47;;;21.93;33.86
43281;BME280;62175;49.416;8.690;2023-06-04T02:29:40;100532.70;;;21.75;30.41
43281;BME280;62175;49.416;8.690;2023-06-04T02:32:09;100538.74;;;21.47;30.92
43281;BME280;62175;49.416;8.690;2023-06-04T02:34:36;100542.21;;;21.68;32.26
43281;BME280;62175;49.416;8.690;2023-06-04T02:37:04;100539.64;;;21.97;34.48
43281;BME280;62175;49.416;8.690;2023-06-04T02:39:32;100538.40;;;21.50;34.35
43281;BME280;62175;49.416;8.690;2023-06-04T02:41:59;100537.28;;;21.91;34.93
43281;BME280;62175;49.416;8.690;2023-06-04T02:44:27;100542.15;;;21.65;32.59
43281;BME280;62175;49.416;8.690;2023-06-04T02:46:54;100540.36;;;21.84;33.55
43281;BME280;62175;49.416;8.690;2023-06-04T02:49:23;100541.99;;;21.50;30.81
43281;BME280;62175;49.416;8.690;2023-06-04T02:51:51;100539.83;;;21.88;32.13
43281;BME280;62175;49.416;8.690;2023-06-04T02:54:20;100542.51;;;21.40;31.86
43281;BME280;62175;49.416;8.690;2023-06-04T02:56:48;100540.66;;;21.58;32.06
43281;BME280;62175;49.416;8.690;2023-06-04T02:59:16;100546.04;;;21.56;30.58
43281;BME280;62175;49.416;8.690;2023-06-04T03:01:44;100548.76;;;21.77;34.88
43281;BME280;62175;49.416;8.690;2023-06-04T03:04:11;100546.61;;;21.33;30.40
43281;BME280;62175;49.416;8.690;2023-06-04T03:06:39;100549.02;;;21.35;32.28
43281;BME280;62175;49.416;8.690;2023-06-04T03:09:07;100552.28;;;21.59;31.65
43281;BME280;62175;49.416;8.690;2023-06-04T03:11:34;100555.30;;;21.19;30.50
43281;BME280;62175;49.416;8.690;2023-06-04T03:14:01;100558.84;;;21.45;31.66
43281;BME280;62175;49.416;8.690;2023-06-04T03:16:28;100557.59;;;21.05;31.33
43281;BME280;62175;49.416;8.690;2023-06-04T03:18:55;100555.23;;;21.31;31.12
43281;BME280;62175;49.416;8.690;2023-06-04T03:21:23;100558.17;;;21.36;31.79
43281;BME280;62175;49.416;8.690;2023-06-04T03:23:51;100554.58;;;21.32;30.68
43281;BME280;62175;49.416;8.690;2023-06-04T03:26:18;100561.88;;;21.35;30.86
43281;BME280;62175;49.416;8.690;2023-06-04T03:28:46;100560.81;;;21.09;34.36
43281;BME280;62175;49.416;8.690;2023-06-04T03:31:14;100562.79;;;21.19;35.03
43281;BME280;62175;49.416;8.690;2023-06-04T03:33:41;100561.47;;;21.27;33.52
43281;BME280;62175;49.416;8.690;2023-06-04T03:36:09;100560.01;;;21.39;31.60
43281;BME280;62175;49.416;8.690;2023-06-04T03:38:37;100561.53;;;21.23;31.33
43281;BME280;62175;49.416;8.690;2023-06-04T03:41:05;100556.48;;;21.35;31.40
43281;BME280;62175;49.416;8.690;2023-06-04T03:43:31;100557.64;;;21.29;31.54
43281;BME280;62175;49.416;8.690;2023-06-04T03:45:58;100559.16;;;21.26;34.28
43281;BME280;62175;49.416;8.690;2023-06-04T03:48:26;100561.50;;;21.40;32.94
43281;BME280;62175;49.416;8.690;2023-06-04T03:50:52;100562.27;;;20.92;31.39
43281;BME280;62175;49.416;8.690;2023-06-04T03:53:21;100565.07;;;21.20;31.13
43281;BME280;62175;49.416;8.690;2023-06-04T03:55:48;100565.71;;;21.28;31.92
43281;BME280;62175;49.416;8.690;2023-06-04T03:58:15;100562.73;;;21.29;30.88
43281;BME280;62175;49.416;8.690;2023-06-04T04:00:42;100567.10;;;21.20;30.47
43281;BME280;62175;49.416;8.690;2023-06-04T04:03:09;100570.52;;;21.23;32.92
43281;BME280;62175;49.416;8.690;2023-06-04T04:05:36;100570.81;;;21.28;32.82
43281;BME280;62175;49.416;8.690;2023-06-04T04:08:03;100568.90;;;21.23;33.16
43281;BME280;62175;49.416;8.690;2023-06-04T04:10:30;100570.09;;;21.08;30.34
43281;BME280;62175;49.416;8.690;2023-06-04T04:12:58;100567.41;;;20.97;31.11
43281;BME280;62175;49.416;8.690;2023-06-04T04:15:25;100571.43;;;21.25;34.52
43281;BME280;62175;49.416;8.690;2023-06-04T04:17:54;100570.50;;;21.12;30.70
43281;BME280;62175;49.416;8.690;2023-06-04T04:20:22;100571.13;;;21.01;31.08
43281;BME280;62175;49.416;8.690;2023-06-04T04:22:49;100577.67;;;21.20;30.70
43281;BME280;62175;49.416;8.690;2023-06-04T04:25:16;100580.77;;;20.77;32.07
43281;BME280;62175;49.416;8.690;2023-06-04T04:27:43;100586.40;;;20.77;33.55
43281;BME280;62175;49.416;8.690;2023-06-04T04:30:11;100590.91;;;20.69;30.86
43281;BME280;62175;49.416;8.690;2023-06-04T04:32:41;100591.93;;;20.70;32.53
43281;BME280;62175;49.416;8.690;2023-06-04T04:35:08;100594.18;;;21.45;31.48
43281;BME280;62175;49.416;8.690;2023-06-04T04:37:35;100588.76;;;20.85;32.42
43281;BME280;62175;49.416;8.690;2023-06-04T04:40:04;100593.74;;;20.92;31.43
43281;BME280;62175;49.416;8.690;2023-06-04T04:42:33;100596.07;;;21.14;31.77
43281;BME280;62175;49.416;8.690;2023-06-04T04:45:01;100593.03;;;20.96;33.88
43281;BME280;62175;49.416;8.690;2023-06-04T04:47:29;100593.65;;;21.12;32.35
43281;BME280;62175;49.416;8.690;2023-06-04T04:49:57;100597.72;;;20.68;31.82
43281;BME280;62175;49.416;8.690;2023-06-04T04:52:26;100598.47;;;21.00;31.27
43281;BME280;62175;49.416;8.690;2023-06-04T04:54:53;100604.13;;;20.94;31.88
43281;BME280;62175;49.416;8.690;2023-06-04T04:57:26;100605.40;;;21.20;31.39
43281;BME280;62175;49.416;8.690;2023-06-04T04:59:55;100608.50;;;20.61;31.34
43281;BME280;62175;49.416;8.690;2023-06-04T05:02:24;100612.97;;;20.94;30.95
43281;BME280;62175;49.416;8.690;2023-06-04T05:04:51;100613.89;;;21.09;31.76
43281;BME280;62175;49.416;8.690;2023-06-04T05:07:18;100615.10;;;21.10;31.71
43281;BME280;62175;49.416;8.690;2023-06-04T05:09:47;100620.52;;;21.04;31.47
43281;BME280;62175;49.416;8.690;2023-06-04T05:12:14;100627.00;;;21.03;30.94
43281;BME280;62175;49.416;8.690;2023-06-04T05:14:42;100625.74;;;20.99;31.74
43281;BME280;62175;49.416;8.690;2023-06-04T05:17:11;100624.55;;;21.12;32.83
43281;BME280;62175;49.416;8.690;2023-06-04T05:19:38;100625.61;;;20.96;32.28
43281;BME280;62175;49.416;8.690;2023-06-04T05:22:06;100625.76;;;20.85;32.03
43281;BME280;62175;49.416;8.690;2023-06-04T05:24:34;100627.99;;;20.95;32.29
43281;BME280;62175;49.416;8.690;2023-06-04T05:27:01;100630.76;;;20.71;32.69
43281;BME280;62175;49.416;8.690;2023-06-04T05:29:28;100625.35;;;20.86;33.56
43281;BME280;62175;49.416;8.690;2023-06-04T05:31:56;100626.85;;;21.15;33.96
43281;BME280;62175;49.416;8.690;2023-06-04T05:34:23;100622.30;;;20.57;33.49
43281;BME280;62175;49.416;8.690;2023-06-04T05:36:50;100622.50;;;20.77;32.85
43281;BME280;62175;49.416;8.690;2023-06-04T05:39:18;100629.86;;;20.66;33.05
43281;BME280;62175;49.416;8.690;2023-06-04T05:41:46;100629.02;;;20.85;33.82
43281;BME280;62175;49.416;8.690;2023-06-04T05:44:14;100632.21;;;20.90;32.91
43281;BME280;62175;49.416;8.690;2023-06-04T05:46:41;100634.27;;;20.88;33.04
43281;BME280;62175;49.416;8.690;2023-06-04T05:49:08;100632.87;;;20.85;32.57
43281;BME280;62175;49.416;8.690;2023-06-04T05:51:36;100635.72;;;21.35;33.67
43281;BME280;62175;49.416;8.690;2023-06-04T05:54:04;100631.33;;;21.02;33.42
43281;BME280;62175;49.416;8.690;2023-06-04T05:56:32;100632.99;;;21.01;33.69
43281;BME280;62175;49.416;8.690;2023-06-04T05:59:00;100635.57;;;20.86;32.51
43281;BME280;62175;49.416;8.690;2023-06-04T06:01:27;100638.09;;;20.91;31.89
43281;BME280;62175;49.416;8.690;2023-06-04T06:03:55;100639.15;;;21.05;32.49
43281;BME280;62175;49.416;8.690;2023-06-04T06:06:24;100642.05;;;21.13;33.33
43281;BME280;62175;49.416;8.690;2023-06-04T06:08:51;100644.79;;;21.00;33.77
43281;BME280;62175;49.416;8.690;2023-06-04T06:11:19;100647.38;;;21.03;32.52
43281;BME280;62175;49.416;8.690;2023-06-04T06:13:47;100652.33;;;21.18;31.53
43281;BME280;62175;49.416;8.690;2023-06-04T06:16:14;100651.39;;;21.23;32.89
43281;BME280;62175;49.416;8.690;2023-06-04T06:18:41;100650.15;;;21.11;33.66
43281;BME280;62175;49.416;8.690;2023-06-04T06:21:08;100655.51;;;21.21;34.66
43281;BME280;62175;49.416;8.690;2023-06-04T06:23:35;100659.24;;;21.24;33.95
43281;BME280;62175;49.416;8.690;2023-06-04T06:26:02;100665.26;;;21.59;35.28
43281;BME280;62175;49.416;8.690;2023-06-04T06:28:30;100669.38;;;21.21;34.41
43281;BME280;62175;49.416;8.690;2023-06-04T06:30:58;100665.39;;;21.22;33.94
43281;BME280;62175;49.416;8.690;2023-06-04T06:33:26;100668.15;;;21.34;34.09
43281;BME280;62175;49.416;8.690;2023-06-04T06:35:53;100674.01;;;21.05;33.28
43281;BME280;62175;49.416;8.690;2023-06-04T06:38:20;100675.26;;;21.16;35.19
43281;BME280;62175;49.416;8.690;2023-06-04T06:40:49;100678.72;;;21.17;34.30
43281;BME280;62175;49.416;8.690;2023-06-04T06:43:16;100678.24;;;21.34;35.26
43281;BME280;62175;49.416;8.690;2023-06-04T06:45:43;100679.30;;;21.52;35.06
43281;BME280;62175;49.416;8.690;2023-06-04T06:48:10;100684.35;;;21.27;34.30
43281;BME280;62175;49.416;8.690;2023-06-04T06:50:37;100681.72;;;21.65;35.03
43281;BME280;62175;49.416;8.690;2023-06-04T06:53:04;100685.21;;;21.60;34.48
43281;BME280;62175;49.416;8.690;2023-06-04T06:55:31;100685.53;;;21.31;34.74
43281;BME280;62175;49.416;8.690;2023-06-04T06:57:58;100685.65;;;21.42;32.44
43281;BME280;62175;49.416;8.690;2023-06-04T07:00:27;100685.88;;;21.62;33.85
43281;BME280;62175;49.416;8.690;2023-06-04T07:02:59;100683.99;;;21.69;33.84
43281;BME280;62175;49.416;8.690;2023-06-04T07:05:27;100683.22;;;21.52;31.85
43281;BME280;62175;49.416;8.690;2023-06-04T07:07:55;100680.25;;;21.71;35.35
43281;BME280;62175;49.416;8.690;2023-06-04T07:10:22;100686.53;;;21.55;32.12
43281;BME280;62175;49.416;8.690;2023-06-04T07:12:50;100687.98;;;21.88;32.74
43281;BME280;62175;49.416;8.690;2023-06-04T07:15:17;100688.75;;;21.87;33.60
43281;BME280;62175;49.416;8.690;2023-06-04T07:17:45;100689.81;;;21.50;32.68
43281;BME280;62175;49.416;8.690;2023-06-04T07:20:12;100687.80;;;21.65;32.06
43281;BME280;62175;49.416;8.690;2023-06-04T07:22:39;100690.63;;;21.60;34.18
43281;BME280;62175;49.416;8.690;2023-06-04T07:25:08;100691.92;;;21.42;34.44
43281;BME280;62175;49.416;8.690;2023-06-04T07:27:37;100694.50;;;22.00;34.67
43281;BME280;62175;49.416;8.690;2023-06-04T07:30:08;100692.10;;;21.61;34.11
43281;BME280;62175;49.416;8.690;2023-06-04T07:32:39;100688.28;;;21.70;34.44
43281;BME280;62175;49.416;8.690;2023-06-04T07:35:08;100683.78;;;21.71;33.41
43281;BME280;62175;49.416;8.690;2023-06-04T07:37:36;100682.88;;;21.79;34.35
43281;BME280;62175;49.416;8.690;2023-06-04T07:40:04;100684.59;;;21.78;32.47
43281;BME280;62175;49.416;8.690;2023-06-04T07:42:32;100687.69;;;21.71;33.72
43281;BME280;62175;49.416;8.690;2023-06-04T07:45:00;100686.92;;;21.77;34.13
43281;BME280;62175;49.416;8.690;2023-06-04T07:47:27;100684.75;;;22.02;33.75
43281;BME280;62175;49.416;8.690;2023-06-04T07:49:54;100681.78;;;21.87;34.37
43281;BME280;62175;49.416;8.690;2023-06-04T07:52:21;100687.21;;;22.06;34.30
43281;BME280;62175;49.416;8.690;2023-06-04T07:54:48;100682.47;;;21.85;33.17
43281;BME280;62175;49.416;8.690;2023-06-04T07:57:15;100680.22;;;21.75;34.00
43281;BME280;62175;49.416;8.690;2023-06-04T07:59:42;100681.88;;;21.80;33.09
43281;BME280;62175;49.416;8.690;2023-06-04T08:02:08;100679.65;;;21.82;33.44
43281;BME280;62175;49.416;8.690;2023-06-04T08:04:36;100675.06;;;22.01;33.46
43281;BME280;62175;49.416;8.690;2023-06-04T08:07:04;100678.30;;;22.11;34.58
43281;BME280;62175;49.416;8.690;2023-06-04T08:09:33;100672.96;;;21.93;35.58
43281;BME280;62175;49.416;8.690;2023-06-04T08:12:00;100672.63;;;21.96;34.80
43281;BME280;62175;49.416;8.690;2023-06-04T08:14:27;100673.85;;;22.04;35.79
43281;BME280;62175;49.416;8.690;2023-06-04T08:16:55;100672.41;;;22.14;36.64
43281;BME280;62175;49.416;8.690;2023-06-04T08:19:23;100671.17;;;22.04;36.43
43281;BME280;62175;49.416;8.690;2023-06-04T08:21:50;100672.43;;;22.08;36.46
43281;BME280;62175;49.416;8.690;2023-06-04T08:24:18;100674.33;;;22.15;37.31
43281;BME280;62175;49.416;8.690;2023-06-04T08:26:46;100672.92;;;22.13;36.98
43281;BME280;62175;49.416;8.690;2023-06-04T08:29:15;100674.03;;;22.20;37.19
43281;BME280;62175;49.416;8.690;2023-06-04T08:31:43;100675.84;;;21.87;36.08
43281;BME280;62175;49.416;8.690;2023-06-04T08:34:11;100676.82;;;22.18;36.42
43281;BME280;62175;49.416;8.690;2023-06-04T08:36:39;100676.36;;;22.22;36.03
43281;BME280;62175;49.416;8.690;2023-06-04T08:39:08;100673.71;;;22.21;36.50
43281;BME280;62175;49.416;8.690;2023-06-04T08:41:41;100676.11;;;22.38;35.85
43281;BME280;62175;49.416;8.690;2023-06-04T08:44:11;100675.02;;;22.26;36.82
43281;BME280;62175;49.416;8.690;2023-06-04T08:46:39;100676.91;;;22.19;37.33
43281;BME280;62175;49.416;8.690;2023-06-04T08:49:07;100680.98;;;22.23;37.47
43281;BME280;62175;49.416;8.690;2023-06-04T08:51:37;100681.90;;;22.00;38.14
43281;BME280;62175;49.416;8.690;2023-06-04T08:54:05;100682.38;;;22.31;38.01
43281;BME280;62175;49.416;8.690;2023-06-04T08:56:34;100682.87;;;21.94;37.98
43281;BME280;62175;49.416;8.690;2023-06-04T08:59:04;100679.73;;;21.98;37.74
43281;BME280;62175;49.416;8.690;2023-06-04T09:01:32;100681.74;;;22.32;37.24
43281;BME280;62175;49.416;8.690;2023-06-04T09:04:04;100682.92;;;22.28;38.08
43281;BME280;62175;49.416;8.690;2023-06-04T09:06:33;100685.34;;;22.26;37.89
43281;BME280;62175;49.416;8.690;2023-06-04T09:09:05;100689.97;;;22.29;39.04
43281;BME280;62175;49.416;8.690;2023-06-04T09:11:37;100688.06;;;22.29;37.61
43281;BME280;62175;49.416;8.690;2023-06-04T09:14:13;100690.48;;;22.38;38.17
43281;BME280;62175;49.416;8.690;2023-06-04T09:16:46;100688.61;;;22.05;38.15
43281;BME280;62175;49.416;8.690;2023-06-04T09:19:15;100690.35;;;22.33;38.17
43281;BME280;62175;49.416;8.690;2023-06-04T09:21:50;100689.65;;;22.44;40.09
43281;BME280;62175;49.416;8.690;2023-06-04T09:24:20;100687.49;;;22.04;38.70
43281;BME280;62175;49.416;8.690;2023-06-04T09:26:50;100691.47;;;22.47;37.94
43281;BME280;62175;49.416;8.690;2023-06-04T09:29:22;100692.28;;;22.42;37.28
43281;BME280;62175;49.416;8.690;2023-06-04T09:31:59;100691.23;;;22.45;36.76
43281;BME280;62175;49.416;8.690;2023-06-04T09:34:29;100688.20;;;22.48;36.84
43281;BME280;62175;49.416;8.690;2023-06-04T09:36:58;100691.13;;;22.47;38.33
43281;BME280;62175;49.416;8.690;2023-06-04T09:39:27;100691.77;;;22.53;36.82
43281;BME280;62175;49.416;8.690;2023-06-04T09:42:04;100685.77;;;22.44;37.35
43281;BME280;62175;49.416;8.690;2023-06-04T09:44:50;100677.36;;;22.52;37.65
43281;BME280;62175;49.416;8.690;2023-06-04T09:47:18;100680.21;;;22.55;37.58
43281;BME280;62175;49.416;8.690;2023-06-04T09:49:55;100680.51;;;22.54;37.71
43281;BME280;62175;49.416;8.690;2023-06-04T09:52:33;100679.75;;;22.58;38.39
43281;BME280;62175;49.416;8.690;2023-06-04T09:56:06;100674.52;;;22.31;38.24
43281;BME280;62175;49.416;8.690;2023-06-04T09:58:37;100679.49;;;22.63;38.09
43281;BME280;62175;49.416;8.690;2023-06-04T10:01:10;100678.87;;;22.48;37.81
43281;BME280;62175;49.416;8.690;2023-06-04T10:03:38;100675.66;;;22.68;38.61
43281;BME280;62175;49.416;8.690;2023-06-04T10:06:10;100677.78;;;22.37;38.94
43281;BME280;62175;49.416;8.690;2023-06-04T10:08:39;100675.78;;;22.55;39.67
43281;BME280;62175;49.416;8.690;2023-06-04T10:11:34;100679.58;;;22.49;39.95
43281;BME280;62175;49.416;8.690;2023-06-04T10:14:03;100676.32;;;22.57;42.57
43281;BME280;62175;49.416;8.690;2023-06-04T10:16:33;100677.39;;;22.60;40.09
43281;BME280;62175;49.416;8.690;2023-06-04T10:19:05;100673.01;;;22.46;40.92
43281;BME280;62175;49.416;8.690;2023-06-04T10:21:34;100673.87;;;22.33;40.64
43281;BME280;62175;49.416;8.690;2023-06-04T10:24:02;100675.20;;;22.44;40.08
43281;BME280;62175;49.416;8.690;2023-06-04T10:26:34;100676.26;;;22.27;39.64
43281;BME280;62175;49.416;8.690;2023-06-04T10:29:03;100681.59;;;22.42;39.49
43281;BME280;62175;49.416;8.690;2023-06-04T10:31:33;100681.89;;;22.29;40.26
43281;BME280;62175;49.416;8.690;2023-06-04T10:34:00;100673.76;;;22.21;41.83
43281;BME280;62175;49.416;8.690;2023-06-04T10:36:27;100673.53;;;22.46;42.28
43281;BME280;62175;49.416;8.690;2023-06-04T10:38:55;100664.89;;;22.40;35.96
43281;BME280;62175;49.416;8.690;2023-06-04T10:41:24;100662.97;;;22.67;36.30
43281;BME280;62175;49.416;8.690;2023-06-04T10:44:01;100663.74;;;22.58;37.01
43281;BME280;62175;49.416;8.690;2023-06-04T10:46:38;100660.32;;;22.58;38.08
43281;BME280;62175;49.416;8.690;2023-06-04T10:49:05;100661.78;;;22.65;39.99
43281;BME280;62175;49.416;8.690;2023-06-04T10:51:35;100658.96;;;22.52;40.07
43281;BME280;62175;49.416;8.690;2023-06-04T10:54:05;100655.88;;;22.84;38.53
43281;BME280;62175;49.416;8.690;2023-06-04T10:56:34;100652.94;;;22.45;39.25
43281;BME280;62175;49.416;8.690;2023-06-04T10:59:16;100654.74;;;22.92;39.06
43281;BME280;62175;49.416;8.690;2023-06-04T11:01:44;100658.48;;;22.45;41.10
43281;BME280;62175;49.416;8.690;2023-06-04T11:04:21;100652.37;;;23.29;38.57
43281;BME280;62175;49.416;8.690;2023-06-04T11:06:59;100654.93;;;23.18;39.15
43281;BME280;62175;49.416;8.690;2023-06-04T11:09:27;100652.72;;;23.01;39.33
43281;BME280;62175;49.416;8.690;2023-06-04T11:12:04;100652.53;;;23.22;39.86
43281;BME280;62175;49.416;8.690;2023-06-04T11:14:31;100659.09;;;23.40;40.25
43281;BME280;62175;49.416;8.690;2023-06-04T11:17:09;100664.00;;;23.49;38.91
43281;BME280;62175;49.416;8.690;2023-06-04T11:19:37;100656.08;;;23.54;37.48
43281;BME280;62175;49.416;8.690;2023-06-04T11:22:05;100650.75;;;23.59;38.47
43281;BME280;62175;49.416;8.690;2023-06-04T11:24:33;100651.59;;;23.80;37.85
43281;BME280;62175;49.416;8.690;2023-06-04T11:27:00;100647.74;;;23.41;38.84
43281;BME280;62175;49.416;8.690;2023-06-04T11:29:28;100640.43;;;23.77;36.63
43281;BME280;62175;49.416;8.690;2023-06-04T11:31:56;100640.22;;;23.76;36.60
43281;BME280;62175;49.416;8.690;2023-06-04T11:34:26;100642.57;;;23.75;37.68
43281;BME280;62175;49.416;8.690;2023-06-04T11:36:54;100644.65;;;23.75;37.04
43281;BME280;62175;49.416;8.690;2023-06-04T11:39:22;100641.68;;;23.73;38.17
43281;BME280;62175;49.416;8.690;2023-06-04T11:41:51;100638.07;;;23.69;38.54
43281;BME280;62175;49.416;8.690;2023-06-04T11:44:19;100640.40;;;23.79;37.74
43281;BME280;62175;49.416;8.690;2023-06-04T11:46:46;100640.13;;;23.64;38.42
43281;BME280;62175;49.416;8.690;2023-06-04T11:49:15;100642.41;;;23.56;38.50
43281;BME280;62175;49.416;8.690;2023-06-04T11:51:46;100642.10;;;23.78;38.87
43281;BME280;62175;49.416;8.690;2023-06-04T11:54:15;100636.97;;;24.06;39.26
43281;BME280;62175;49.416;8.690;2023-06-04T11:56:48;100632.90;;;23.98;37.98
43281;BME280;62175;49.416;8.690;2023-06-04T12:00:55;100630.00;;;23.94;38.83
43281;BME280;62175;49.416;8.690;2023-06-04T22:02:55;100603.01;;;23.01;32.43
43281;BME280;62175;49.416;8.690;2023-06-04T22:05:23;100606.44;;;23.35;33.23
43281;BME280;62175;49.416;8.690;2023-06-04T22:07:52;100603.72;;;23.16;28.88
43281;BME280;62175;49.416;8.690;2023-06-04T22:10:46;100606.08;;;23.32;32.67
43281;BME280;62175;49.416;8.690;2023-06-04T22:13:15;100603.70;;;23.56;29.38
43281;BME280;62175;49.416;8.690;2023-06-04T22:15:50;100601.52;;;23.44;33.73
43281;BME280;62175;49.416;8.690;2023-06-04T22:18:18;100599.37;;;23.24;29.55
43281;BME280;62175;49.416;8.690;2023-06-04T22:20:44;100602.46;;;23.41;29.63
43281;BME280;62175;49.416;8.690;2023-06-04T22:23:11;100603.49;;;23.39;34.02
43281;BME280;62175;49.416;8.690;2023-06-04T22:25:38;100605.51;;;23.34;30.53
43281;BME280;62175;49.416;8.690;2023-06-04T22:28:06;100604.15;;;23.28;31.32
43281;BME280;62175;49.416;8.690;2023-06-04T22:30:34;100602.98;;;23.27;31.50
43281;BME280;62175;49.416;8.690;2023-06-04T22:33:01;100602.11;;;23.28;31.95
43281;BME280;62175;49.416;8.690;2023-06-04T22:35:28;100604.30;;;23.26;31.31
43281;BME280;62175;49.416;8.690;2023-06-04T22:37:56;100597.51;;;23.18;30.07
43281;BME280;62175;49.416;8.690;2023-06-04T22:40:22;100598.09;;;23.37;28.85
43281;BME280;62175;49.416;8.690;2023-06-04T22:42:49;100601.45;;;23.16;32.26
43281;BME280;62175;49.416;8.690;2023-06-04T22:45:16;100601.18;;;23.42;31.20
43281;BME280;62175;49.416;8.690;2023-06-04T22:47:44;100594.99;;;23.08;31.77
43281;BME280;62175;49.416;8.690;2023-06-04T22:50:12;100595.79;;;23.30;30.66
43281;BME280;62175;49.416;8.690;2023-06-04T22:52:39;100595.21;;;23.16;31.08
43281;BME280;62175;49.416;8.690;2023-06-04T22:55:07;100596.99;;;23.36;31.96
43281;BME280;62175;49.416;8.690;2023-06-04T22:57:34;100600.57;;;23.21;33.43
43281;BME280;62175;49.416;8.690;2023-06-04T23:00:02;100596.58;;;23.35;29.19